Time,TemperatureF,DewpointF,PressureIn,WindDirection,WindDirectionDegrees,WindSpeedMPH,WindSpeedGustMPH,Humidity,HourlyPrecipIn,Conditions,Clouds,dailyrainin,SoftwareType,DateUTC
2013-03-11 00:14:00,30.4,29.7,29.76,NW,315,8.3,-999.0,97,-99.99,,,0.00,Acu-Link.com,2013-03-11 05:14:00,
2013-03-11 00:29:00,30.0,29.5,29.76,WNW,292,7.8,-999.0,98,-99.99,,,0.00,Acu-Link.com,2013-03-11 05:29:00,
2013-03-11 00:44:00,29.7,29.2,29.76,WNW,292,5.3,-999.0,98,-99.99,,,0.00,Acu-Link.com,2013-03-11 05:44:00,
2013-03-11 00:59:00,29.5,29.0,29.76,WNW,292,6.3,-999.0,98,-99.99,,,0.00,Acu-Link.com,2013-03-11 05:59:00,
2013-03-11 01:15:00,29.1,28.6,29.75,WNW,292,4.7,-999.0,98,-99.99,,,0.00,Acu-Link.com,2013-03-11 06:15:00,
2013-03-11 01:30:00,29.1,28.6,29.75,West,270,4.7,-999.0,98,-99.99,,,0.00,Acu-Link.com,2013-03-11 06:30:00,
2013-03-11 01:45:00,29.1,28.6,29.75,West,270,8.3,-999.0,98,-99.99,,,0.00,Acu-Link.com,2013-03-11 06:45:00,
2013-03-11 02:00:00,28.9,28.2,29.75,West,270,9.4,-999.0,97,-99.99,,,0.00,Acu-Link.com,2013-03-11 07:00:00,
2013-03-11 02:15:00,28.9,28.2,29.74,West,270,8.9,-999.0,97,-99.99,,,0.00,Acu-Link.com,2013-03-11 07:15:00,
2013-03-11 02:30:00,28.9,28.2,29.74,West,270,5.8,-999.0,97,-99.99,,,0.00,Acu-Link.com,2013-03-11 07:30:00,
2013-03-11 02:45:00,28.8,28.1,29.73,West,270,7.8,-999.0,97,-99.99,,,0.00,Acu-Link.com,2013-03-11 07:45:00,
2013-03-11 03:00:00,28.8,27.8,29.73,SSW,202,8.3,-999.0,96,-99.99,,,0.00,Acu-Link.com,2013-03-11 08:00:00,
2013-03-11 03:46:00,28.6,27.6,29.72,West,270,4.7,-999.0,96,-99.99,,,0.00,Acu-Link.com,2013-03-11 08:46:00,
2013-03-11 04:17:00,28.6,27.6,29.71,West,270,7.3,-999.0,96,-99.99,,,0.00,Acu-Link.com,2013-03-11 09:17:00,
2013-03-11 04:32:00,28.6,27.1,29.71,West,270,7.3,-999.0,94,-99.99,,,0.00,Acu-Link.com,2013-03-11 09:32:00,
2013-03-11 04:47:00,28.4,26.9,29.72,West,270,8.9,-999.0,94,-99.99,,,0.00,Acu-Link.com,2013-03-11 09:47:00,
2013-03-11 05:02:00,28.2,26.4,29.72,NW,315,8.9,-999.0,93,-99.99,,,0.00,Acu-Link.com,2013-03-11 10:02:00,
2013-03-11 05:17:00,28.2,26.4,29.72,WNW,292,8.9,-999.0,93,-99.99,,,0.00,Acu-Link.com,2013-03-11 10:17:00,
2013-03-11 05:32:00,27.9,26.4,29.74,West,270,12.5,-999.0,94,-99.99,,,0.00,Acu-Link.com,2013-03-11 10:32:00,
2013-03-11 05:47:00,27.9,26.4,29.74,West,270,4.7,-999.0,94,-99.99,,,0.00,Acu-Link.com,2013-03-11 10:47:00,
2013-03-11 06:02:00,27.9,25.9,29.74,West,270,4.2,-999.0,92,-99.99,,,0.00,Acu-Link.com,2013-03-11 11:02:00,
2013-03-11 06:18:00,27.9,26.1,29.74,WNW,292,10.9,-999.0,93,-99.99,,,0.00,Acu-Link.com,2013-03-11 11:18:00,
2013-03-11 06:33:00,27.9,26.4,29.76,West,270,7.3,-999.0,94,-99.99,,,0.00,Acu-Link.com,2013-03-11 11:33:00,
2013-03-11 06:48:00,27.5,25.7,29.77,WNW,292,6.8,-999.0,93,-99.99,,,0.00,Acu-Link.com,2013-03-11 11:48:00,
2013-03-11 07:03:00,27.3,25.8,29.77,West,270,7.3,-999.0,94,-99.99,,,0.00,Acu-Link.com,2013-03-11 12:03:00,
2013-03-11 07:18:00,27.1,25.4,29.76,WNW,292,9.4,-999.0,93,-99.99,,,0.00,Acu-Link.com,2013-03-11 12:18:00,
2013-03-11 07:33:00,27.0,25.3,29.75,NW,315,8.9,-999.0,93,-99.99,,,0.00,Acu-Link.com,2013-03-11 12:33:00,
2013-03-11 07:48:00,27.0,25.5,29.76,NNW,337,5.8,-999.0,94,-99.99,,,0.00,Acu-Link.com,2013-03-11 12:48:00,
2013-03-11 08:03:00,26.8,25.1,29.77,West,270,11.9,-999.0,93,-99.99,,,0.00,Acu-Link.com,2013-03-11 13:03:00,
2013-03-11 08:18:00,27.0,25.3,29.77,West,270,12.5,-999.0,93,-99.99,,,0.00,Acu-Link.com,2013-03-11 13:18:00,
2013-03-11 08:34:00,27.0,25.3,29.77,West,270,9.4,-999.0,93,-99.99,,,0.00,Acu-Link.com,2013-03-11 13:34:00,
2013-03-11 08:49:00,27.1,24.8,29.77,West,270,14.0,-999.0,91,-99.99,,,0.00,Acu-Link.com,2013-03-11 13:49:00,
2013-03-11 09:04:00,27.3,25.0,29.78,WNW,292,5.8,-999.0,91,-99.99,,,0.00,Acu-Link.com,2013-03-11 14:04:00,
2013-03-11 09:19:00,27.3,25.0,29.79,West,270,12.5,-999.0,91,-99.99,,,0.00,Acu-Link.com,2013-03-11 14:19:00,
2013-03-11 09:34:00,27.5,25.0,29.80,West,270,9.9,-999.0,90,-99.99,,,0.00,Acu-Link.com,2013-03-11 14:34:00,
2013-03-11 09:49:00,27.7,25.2,29.79,West,270,7.3,-999.0,90,-99.99,,,0.00,Acu-Link.com,2013-03-11 14:49:00,
2013-03-11 10:04:00,28.2,25.4,29.80,WNW,292,7.8,-999.0,89,-99.99,,,0.00,Acu-Link.com,2013-03-11 15:04:00,
2013-03-11 10:19:00,28.2,25.4,29.80,West,270,8.9,-999.0,89,-99.99,,,0.00,Acu-Link.com,2013-03-11 15:19:00,
2013-03-11 10:34:00,27.7,24.6,29.80,NW,315,9.4,-999.0,88,-99.99,,,0.00,Acu-Link.com,2013-03-11 15:34:00,
2013-03-11 10:50:00,27.7,24.6,29.80,West,270,6.8,-999.0,88,-99.99,,,0.00,Acu-Link.com,2013-03-11 15:50:00,
2013-03-11 11:05:00,28.4,25.0,29.81,NW,315,8.3,-999.0,87,-99.99,,,0.00,Acu-Link.com,2013-03-11 16:05:00,
2013-03-11 11:20:00,29.1,25.2,29.81,West,270,8.3,-999.0,85,-99.99,,,0.00,Acu-Link.com,2013-03-11 16:20:00,
2013-03-11 11:35:00,29.3,24.8,29.82,WNW,292,10.9,-999.0,83,-99.99,,,0.00,Acu-Link.com,2013-03-11 16:35:00,
2013-03-11 11:50:00,30.2,25.7,29.80,West,270,10.4,-999.0,83,-99.99,,,0.00,Acu-Link.com,2013-03-11 16:50:00,
2013-03-11 12:05:00,29.8,25.3,29.82,West,270,10.4,-999.0,83,-99.99,,,0.00,Acu-Link.com,2013-03-11 17:05:00,
2013-03-11 12:20:00,30.0,25.5,29.82,WNW,292,11.4,-999.0,83,-99.99,,,0.00,Acu-Link.com,2013-03-11 17:20:00,
2013-03-11 12:35:00,30.4,25.9,29.82,WNW,292,6.8,-999.0,83,-99.99,,,0.00,Acu-Link.com,2013-03-11 17:35:00,
2013-03-11 12:50:00,31.5,26.7,29.81,SW,225,6.8,-999.0,82,-99.99,,,0.00,Acu-Link.com,2013-03-11 17:50:00,
2013-03-11 13:06:00,32.5,27.3,29.82,WNW,292,7.3,-999.0,81,-99.99,,,0.00,Acu-Link.com,2013-03-11 18:06:00,
2013-03-11 14:06:00,33.4,27.6,29.80,WNW,292,5.3,-999.0,79,-99.99,,,0.00,Acu-Link.com,2013-03-11 19:06:00,
2013-03-11 14:36:00,34.2,28.1,29.81,West,270,6.8,-999.0,78,-99.99,,,0.00,Acu-Link.com,2013-03-11 19:36:00,
2013-03-11 14:51:00,34.0,27.9,29.81,West,270,7.8,-999.0,78,-99.99,,,0.00,Acu-Link.com,2013-03-11 19:51:00,
2013-03-11 15:06:00,34.0,27.9,29.80,West,270,6.3,-999.0,78,-99.99,,,0.00,Acu-Link.com,2013-03-11 20:06:00,
2013-03-11 15:22:00,34.3,27.2,29.80,West,270,7.8,-999.0,75,-99.99,,,0.00,Acu-Link.com,2013-03-11 20:22:00,
2013-03-11 15:37:00,35.2,27.4,29.81,West,270,7.3,-999.0,73,-99.99,,,0.00,Acu-Link.com,2013-03-11 20:37:00,
2013-03-11 15:52:00,36.0,27.9,29.81,WNW,292,6.8,-999.0,72,-99.99,,,0.00,Acu-Link.com,2013-03-11 20:52:00,
2013-03-11 16:07:00,34.5,26.4,29.81,ESE,112,6.8,-999.0,72,-99.99,,,0.00,Acu-Link.com,2013-03-11 21:07:00,
2013-03-11 16:22:00,34.2,27.1,29.81,WNW,292,10.9,-999.0,75,-99.99,,,0.00,Acu-Link.com,2013-03-11 21:22:00,
2013-03-11 16:37:00,34.2,26.8,29.82,West,270,7.8,-999.0,74,-99.99,,,0.00,Acu-Link.com,2013-03-11 21:37:00,
2013-03-11 16:52:00,35.8,27.3,29.81,WNW,292,4.7,-999.0,71,-99.99,,,0.00,Acu-Link.com,2013-03-11 21:52:00,
2013-03-11 17:07:00,35.6,27.1,29.81,West,270,6.8,-999.0,71,-99.99,,,0.00,Acu-Link.com,2013-03-11 22:07:00,
2013-03-11 17:22:00,35.8,27.0,29.82,WNW,292,7.3,-999.0,70,-99.99,,,0.00,Acu-Link.com,2013-03-11 22:22:00,
2013-03-11 17:38:00,35.8,27.0,29.83,West,270,4.7,-999.0,70,-99.99,,,0.00,Acu-Link.com,2013-03-11 22:38:00,
2013-03-11 17:53:00,35.2,26.1,29.83,West,270,3.7,-999.0,69,-99.99,,,0.00,Acu-Link.com,2013-03-11 22:53:00,
2013-03-11 18:08:00,35.1,26.0,29.83,WNW,292,5.8,-999.0,69,-99.99,,,0.00,Acu-Link.com,2013-03-11 23:08:00,
2013-03-11 18:23:00,35.4,26.3,29.85,West,270,8.3,-999.0,69,-99.99,,,0.00,Acu-Link.com,2013-03-11 23:23:00,
2013-03-11 18:38:00,33.4,25.7,29.85,NW,315,4.7,-999.0,73,-99.99,,,0.00,Acu-Link.com,2013-03-11 23:38:00,
2013-03-11 18:53:00,32.7,25.3,29.85,West,270,2.7,-999.0,74,-99.99,,,0.00,Acu-Link.com,2013-03-11 23:53:00,
2013-03-11 19:08:00,31.6,25.5,29.85,West,270,3.7,-999.0,78,-99.99,,,0.00,Acu-Link.com,2013-03-12 00:08:00,
2013-03-11 19:23:00,31.1,25.4,29.86,WNW,292,2.7,-999.0,79,-99.99,,,0.00,Acu-Link.com,2013-03-12 00:23:00,
2013-03-11 19:38:00,30.2,24.2,29.85,West,270,1.7,-999.0,78,-99.99,,,0.00,Acu-Link.com,2013-03-12 00:38:00,
2013-03-11 20:09:00,27.7,23.8,29.87,West,270,1.7,-999.0,85,-99.99,,,0.00,Acu-Link.com,2013-03-12 01:09:00,
2013-03-11 20:24:00,28.2,23.4,29.88,West,270,1.7,-999.0,82,-99.99,,,0.00,Acu-Link.com,2013-03-12 01:24:00,
2013-03-11 20:39:00,27.5,23.3,29.88,WNW,292,1.1,-999.0,84,-99.99,,,0.00,Acu-Link.com,2013-03-12 01:39:00,
2013-03-11 20:54:00,27.1,22.9,29.88,West,270,0.0,-999.0,84,-99.99,,,0.00,Acu-Link.com,2013-03-12 01:54:00,
2013-03-11 21:09:00,26.1,24.1,29.88,South,180,2.2,-999.0,92,-99.99,,,0.00,Acu-Link.com,2013-03-12 02:09:00,
2013-03-11 21:24:00,26.1,25.6,29.89,SSW,202,1.7,-999.0,98,-99.99,,,0.00,Acu-Link.com,2013-03-12 02:24:00,
2013-03-11 21:39:00,24.3,23.8,29.90,SW,225,0.0,-999.0,98,-99.99,,,0.00,Acu-Link.com,2013-03-12 02:39:00,
2013-03-11 21:54:00,24.8,24.3,29.89,SSW,202,0.0,-999.0,98,-99.99,,,0.00,Acu-Link.com,2013-03-12 02:54:00,
2013-03-11 22:10:00,23.7,23.2,29.90,WSW,247,0.0,-999.0,98,-99.99,,,0.00,Acu-Link.com,2013-03-12 03:10:00,
2013-03-11 22:25:00,23.5,23.0,29.90,SSW,202,0.0,-999.0,98,-99.99,,,0.00,Acu-Link.com,2013-03-12 03:25:00,
2013-03-11 22:40:00,24.1,23.6,29.90,SW,225,1.7,-999.0,98,-99.99,,,0.00,Acu-Link.com,2013-03-12 03:40:00,
2013-03-11 22:55:00,24.1,23.6,29.89,SE,135,2.2,-999.0,98,-99.99,,,0.00,Acu-Link.com,2013-03-12 03:55:00,
2013-03-11 23:10:00,24.3,23.8,29.89,SSE,157,1.1,-999.0,98,-99.99,,,0.00,Acu-Link.com,2013-03-12 04:10:00,
2013-03-11 23:25:00,23.9,23.4,29.90,NW,315,1.7,-999.0,98,-99.99,,,0.00,Acu-Link.com,2013-03-12 04:25:00,
2013-03-11 23:40:00,23.4,22.9,29.91,North,0,0.0,-999.0,98,-99.99,,,0.00,Acu-Link.com,2013-03-12 04:40:00,
2013-03-11 23:55:00,22.6,22.1,29.92,NNE,22,0.0,-999.0,98,-99.99,,,0.00,Acu-Link.com,2013-03-12 04:55:00,